Dirección General De Aeronáutica Civil

Dirección Meteorológica de Chile - Servicios Climáticos

Informe General de Control de Calidad de la Estación

Listado de niveles de control de calidad para algunos parámetros
Estación Llico, Reserva Laguna Torca (340023)
Fecha de Revisión de los datos :

Elementos

Registros Niveles de Control Total
Nivel 0 Nivel 1 Nivel 2 Nivel 3 Errores Porcentaje
01 Temperatura del Aire Seco 5.778 0 . 0 . 0 . 0 . 0 0.00 %
02 Humedad Relativa del Aire 0 0 . 0 . 0 . 0 . 0 .
03 Temperatura Máxima PM 5.489 0 . 0 . 29 0.53 % 0 . 29 0.53 %
04 Temperatura Mínima AM 10.120 0 . 0 . 12 0.12 % 0 . 12 0.12 %
05 Viento a 10 m. de Altura 736 0 . 0 . 0 . 0 . 0 0.00 %

Totales

22.123 . 0.0000 % . 0.0000 % . 0.1853 % . 0.0000 % 41 0.1853 %

Detalle de Errores Encontrados

Nivel Fecha del Dato Descripción Información Error Fecha Ingreso
2 2002-06-26 00:00:00 Temperatura 19.3 del 25-06-2002 18:00, Mayor que la Máxima 16.0 26-06-2002 00:00 19.3 -- 16.0 2023-12-30 22:07:00
2 2002-08-03 00:00:00 Temperatura 11.3 del 02-08-2002 18:00, Mayor que la Máxima 10.1 03-08-2002 00:00 11.3 -- 10.1 2023-12-30 22:07:00
2 2002-11-02 00:00:00 Temperatura 15.4 del 01-11-2002 18:00, Mayor que la Máxima 12.3 02-11-2002 00:00 15.4 -- 12.3 2023-12-30 22:08:00
2 2002-11-25 00:00:00 Temperatura 22.6 del 24-11-2002 18:00, Mayor que la Máxima 13.5 25-11-2002 00:00 22.6 -- 13.5 2023-12-30 22:08:00
2 2002-12-13 00:00:00 Temperatura 26.2 del 12-12-2002 18:00, Mayor que la Máxima 24.2 13-12-2002 00:00 26.2 -- 24.2 2023-12-30 22:08:00
2 2003-04-24 00:00:00 Temperatura 21.0 del 23-04-2003 18:00, Mayor que la Máxima 20.5 24-04-2003 00:00 21.0 -- 20.5 2023-12-30 22:08:00
2 2003-05-17 00:00:00 Temperatura 15.6 del 16-05-2003 18:00, Mayor que la Máxima 13.0 17-05-2003 00:00 15.6 -- 13.0 2023-12-29 22:28:00
2 2003-07-16 00:00:00 Temperatura 15.8 del 15-07-2003 18:00, Mayor que la Máxima 12.0 16-07-2003 00:00 15.8 -- 12.0 2023-12-29 22:29:00
2 2003-07-27 00:00:00 Temperatura 14.5 del 26-07-2003 18:00, Mayor que la Máxima 12.0 27-07-2003 00:00 14.5 -- 12.0 2023-12-29 22:29:00
2 2003-09-03 00:00:00 Temperatura 12.4 del 02-09-2003 18:00, Mayor que la Máxima 12.2 03-09-2003 00:00 12.4 -- 12.2 2023-12-29 22:29:00
2 2004-02-16 00:00:00 Temperatura 26.0 del 15-02-2004 18:00, Mayor que la Máxima 24.8 16-02-2004 00:00 26.0 -- 24.8 2023-12-29 22:29:00
2 2004-05-08 00:00:00 Temperatura 18.2 del 07-05-2004 18:00, Mayor que la Máxima 14.1 08-05-2004 00:00 18.2 -- 14.1 2023-12-31 02:39:00
2 2004-08-02 00:00:00 Temperatura 14.5 del 01-08-2004 18:00, Mayor que la Máxima 14.1 02-08-2004 00:00 14.5 -- 14.1 2023-12-31 02:39:00
2 2004-08-06 00:00:00 Temperatura 15.5 del 05-08-2004 18:00, Mayor que la Máxima 15.0 06-08-2004 00:00 15.5 -- 15.0 2023-12-31 02:39:00
2 2004-11-20 00:00:00 Temperatura 20.8 del 19-11-2004 18:00, Mayor que la Máxima 18.8 20-11-2004 00:00 20.8 -- 18.8 2023-12-31 02:40:00
2 2004-12-06 00:00:00 Temperatura 25.6 del 05-12-2004 18:00, Mayor que la Máxima 25.0 06-12-2004 00:00 25.6 -- 25.0 2023-12-31 02:40:00
2 2005-03-07 00:00:00 Temperatura 15.0 del 06-03-2005 18:00, Mayor que la Máxima 13.5 07-03-2005 00:00 15.0 -- 13.5 2023-12-31 02:40:00
2 2005-03-09 00:00:00 Temperatura 22.4 del 08-03-2005 18:00, Mayor que la Máxima 19.0 09-03-2005 00:00 22.4 -- 19.0 2023-12-31 02:40:00
2 2013-03-30 00:00:00 Temperatura 18.0 del 29-03-2013 18:00, Mayor que la Máxima 16.5 30-03-2013 00:00 18.0 -- 16.5 2018-02-28 13:42:00
2 2013-06-03 00:00:00 Temperatura 19.0 del 02-06-2013 18:00, Mayor que la Máxima 15.7 03-06-2013 00:00 19.0 -- 15.7 2018-02-28 15:15:00
2 2013-06-05 00:00:00 Temperatura 21.0 del 04-06-2013 18:00, Mayor que la Máxima 18.0 05-06-2013 00:00 21.0 -- 18.0 2018-02-28 15:15:00
2 2013-06-10 00:00:00 Temperatura 16.0 del 09-06-2013 18:00, Mayor que la Máxima 15.0 10-06-2013 00:00 16.0 -- 15.0 2018-02-28 15:16:00
2 2013-06-13 00:00:00 Temperatura 17.1 del 12-06-2013 18:00, Mayor que la Máxima 15.0 13-06-2013 00:00 17.1 -- 15.0 2018-02-28 15:16:00
2 2013-06-14 00:00:00 Temperatura 17.1 del 13-06-2013 18:00, Mayor que la Máxima 17.0 14-06-2013 00:00 17.1 -- 17.0 2018-02-28 15:16:00
2 2013-06-16 00:00:00 Temperatura 16.0 del 15-06-2013 18:00, Mayor que la Máxima 13.0 16-06-2013 00:00 16.0 -- 13.0 2018-02-28 15:16:00
2 2013-06-23 00:00:00 Temperatura 14.8 del 22-06-2013 18:00, Mayor que la Máxima 10.9 23-06-2013 00:00 14.8 -- 10.9 2018-02-28 15:22:00
2 2013-08-31 00:00:00 Temperatura 15.1 del 30-08-2013 18:00, Mayor que la Máxima 14.5 31-08-2013 00:00 15.1 -- 14.5 2018-02-28 17:42:00
2 2013-09-16 00:00:00 Temperatura 14.4 del 15-09-2013 18:00, Mayor que la Máxima 10.5 16-09-2013 00:00 14.4 -- 10.5 2018-02-28 18:00:00
2 2013-10-02 00:00:00 Temperatura 18.2 del 01-10-2013 18:00, Mayor que la Máxima 14.2 02-10-2013 00:00 18.2 -- 14.2 2018-02-28 18:42:00
2 2002-06-29 12:00:00 Temperatura 2.0 del 29-06-2002 12:00, Menor que la Mínima 3.6 29-06-2002 12:00 2.0 -- 3.6 2023-12-30 22:07:00
2 2002-08-21 12:00:00 Temperatura 5.0 del 21-08-2002 12:00, Menor que la Mínima 6.0 21-08-2002 12:00 5.0 -- 6.0 2023-12-30 22:07:00
2 2002-09-18 12:00:00 Temperatura 2.4 del 18-09-2002 12:00, Menor que la Mínima 4.9 18-09-2002 12:00 2.4 -- 4.9 2023-12-30 22:08:00
2 2003-04-21 12:00:00 Temperatura 10.2 del 21-04-2003 12:00, Menor que la Mínima 11.0 21-04-2003 12:00 10.2 -- 11.0 2023-12-30 22:08:00
2 2003-05-02 12:00:00 Temperatura 7.3 del 02-05-2003 12:00, Menor que la Mínima 7.6 02-05-2003 12:00 7.3 -- 7.6 2023-12-29 22:28:00
2 2003-07-27 12:00:00 Temperatura 4.9 del 27-07-2003 12:00, Menor que la Mínima 5.8 27-07-2003 12:00 4.9 -- 5.8 2023-12-29 22:29:00
2 2003-08-05 12:00:00 Temperatura 2.2 del 05-08-2003 12:00, Menor que la Mínima 3.6 05-08-2003 12:00 2.2 -- 3.6 2023-12-29 22:29:00
2 2003-08-06 12:00:00 Temperatura 2.0 del 06-08-2003 12:00, Menor que la Mínima 3.8 06-08-2003 12:00 2.0 -- 3.8 2023-12-29 22:29:00
2 2004-03-25 12:00:00 Temperatura 9.0 del 25-03-2004 12:00, Menor que la Mínima 9.5 25-03-2004 12:00 9.0 -- 9.5 2023-12-29 22:29:00
2 2004-10-21 12:00:00 Temperatura 12.8 del 21-10-2004 12:00, Menor que la Mínima 17.2 21-10-2004 12:00 12.8 -- 17.2 2023-12-31 02:40:00
2 2006-12-25 12:00:00 Temperatura 14.0 del 25-12-2006 12:00, Menor que la Mínima 15.0 25-12-2006 12:00 14.0 -- 15.0 2023-12-31 01:34:00
2 2013-12-01 12:00:00 Temperatura 11.5 del 01-12-2013 12:00, Menor que la Mínima 15.3 01-12-2013 12:00 11.5 -- 15.3 2018-02-28 19:10:00
Errores del Nivel 41
Informe generado el 17-07-2024 12:24
Requerimiento: RE6001